Flight Track Log - Related Links

Times and Time Zones

All times are in EDT time to prevent confusion due to time zone crossing. See the ASQ4179 flight status page for this flight to view local times or setup timezone preferences in your user account.

Time Position Orientation Groundspeed Altitude Reporting Facility
EDT Latitude Longitude Course Direction KTS MPH feet Rate Location/Type
Tue 12:17:45 PM 35.3872 -97.6097 170° South 136 157 1,900  Level Fort Center
Tue 12:19:09 PM 35.3144 -97.5942 170° South 225 259 5,200 2,373 Climbing Fort Center
Tue 12:19:59 PM 35.2622 -97.5992 184° South 255 293 7,200 2,200 Climbing Fort Center
Tue 12:21:09 PM 35.1767 -97.5939 177° South 285 328 9,600 1,615 Climbing Fort Center
Tue 12:22:09 PM 35.0933 -97.5811 173° South 295 339 10,700 1,150 Climbing Fort Center
Tue 12:23:09 PM 35.0014 -97.5631 171° South 336 387 11,900 1,300 Climbing Fort Center
Tue 12:24:09 PM 34.9036 -97.5350 167° South 356 410 13,300 1,450 Climbing Fort Center
Tue 12:25:09 PM 34.8075 -97.4844 157° South 366 421 14,800 1,450 Climbing Fort Center
Tue 12:26:09 PM 34.7094 -97.4336 157° South 372 428 16,200 1,450 Climbing Fort Center
Tue 12:27:09 PM 34.6114 -97.3808 156° South 377 434 17,700 1,450 Climbing Fort Center
Tue 12:28:09 PM 34.5133 -97.3303 157° South 377 434 19,100 1,150 Climbing Fort Center
Tue 12:29:09 PM 34.4092 -97.2750 156° South 388 447 20,000 850 Climbing Fort Center
Tue 12:30:09 PM 34.3025 -97.2200 157° South 403 464 20,800 950 Climbing Fort Center
Tue 12:31:09 PM 34.1919 -97.1700 159° South 419 482 21,900 1,100 Climbing Fort Center
Tue 12:32:09 PM 34.0769 -97.1453 170° South 419 482 23,000 1,150 Climbing Fort Center
Tue 12:33:09 PM 33.9600 -97.1181 169° South 424 488 24,200 1,100 Climbing Fort Center
Tue 12:34:09 PM 33.8392 -97.0983 172° South 429 494 25,200 1,000 Climbing Fort Center
Tue 12:35:09 PM 33.7139 -97.0689 169° South 422 486 26,200 950 Climbing Fort Center
Tue 12:36:09 PM 33.5925 -97.0444 170° South 434 499 27,100 1,000 Climbing Fort Center
Tue 12:37:09 PM 33.4694 -97.0225 172° South 447 514 28,200 950 Climbing Fort Center
Tue 12:38:09 PM 33.3461 -96.9956 170° South 447 514 29,000 950 Climbing Fort Center
Tue 12:39:09 PM 33.2208 -96.9714 171° South 452 520 30,100 950 Climbing Fort Center
Tue 12:40:09 PM 33.1039 -96.9472 170° South 462 532 30,900 450 Climbing Fort Center
Tue 12:41:09 PM 32.9619 -96.9183 170° South 472 543 31,000 50 Climbing Fort Center
Tue 12:42:09 PM 32.8303 -96.8869 169° South 480 552 31,000  Level Fort Center
Tue 12:43:09 PM 32.6986 -96.8531 168° South 487 560 31,000  Level Fort Center
Tue 12:44:09 PM 32.5772 -96.8192 167° South 487 560 31,000  Level Fort Center
Tue 12:45:09 PM 32.4372 -96.7758 165° South 487 560 31,000  Level Fort Center
Tue 12:46:09 PM 32.3181 -96.7422 167° South 482 555 31,000  Level Fort Center
Tue 12:47:09 PM 32.1906 -96.7039 166° South 482 555 31,000 -50 Level Fort Center
Tue 12:48:09 PM 32.0608 -96.6681 167° South 477 549 30,900 -550 Descending Fort Center
Tue 12:49:09 PM 31.9186 -96.6278 166° South 472 543 29,900 -1,000 Descending Fort Center
Tue 12:50:09 PM 31.7869 -96.5872 165° South 472 543 28,900 -962 Descending Fort Center
Tue 12:51:20 PM 31.6392 -96.5475 167° South 481 554 27,800 -857 Descending Houston Center
Tue 12:52:22 PM 31.5061 -96.5078 166° South 484 557 27,000 -677 Descending Houston Center
Tue 12:53:24 PM 31.3825 -96.4361 154° Southeast 487 560 26,400 -774 Descending Houston Center
Tue 12:54:26 PM 31.2636 -96.3611 152° Southeast 479 551 25,400 -919 Descending Houston Center
Tue 12:55:28 PM 31.1442 -96.2867 152° Southeast 479 551 24,500 -1,016 Descending Houston Center
Tue 12:56:30 PM 31.0275 -96.2156 152° Southeast 469 540 23,300 -1,887 Descending Houston Center
Tue 12:57:32 PM 30.8978 -96.1342 152° Southeast 451 519 20,600 -2,419 Descending Houston Center
Tue 12:58:34 PM 30.7917 -96.0686 152° Southeast 432 497 18,300 -2,226 Descending Houston Center
Tue 12:59:36 PM 30.6858 -96.0044 152° Southeast 406 467 16,000 -2,202 Descending Houston Center
Tue 01:00:23 PM 30.6083 -95.9589 153° Southeast 396 456 14,300 -1,790 Descending Houston Center
Tue 01:01:40 PM 30.5019 -95.8919 152° Southeast 387 445 12,300 -993 Descending Houston Center
Tue 01:02:42 PM 30.4208 -95.8283 146° Southeast 351 404 12,000 -290 Descending Houston Center
Tue 01:03:44 PM 30.3603 -95.7653 138° Southeast 295 339 11,700 -823 Descending Houston Center
Tue 01:04:46 PM 30.2886 -95.6894 138° Southeast 291 335 10,300 -1,403 Descending Houston Center
Tue 01:05:48 PM 30.2272 -95.6272 139° Southeast 292 336 8,800 -1,548 Descending Houston Center
Tue 01:06:50 PM 30.1697 -95.5650 137° Southeast 286 329 7,100 -1,210 Descending Houston Center
Tue 01:07:52 PM 30.1211 -95.5039 133° Southeast 263 303 6,300 -532 Descending Houston Center
Tue 01:08:54 PM 30.1072 -95.4194 101° East 283 326 6,000 -140 Descending Houston Center
Tue 01:10:01 PM 30.1053 -95.3069 91° East 289 333 6,000 -677 Level Houston Center
Tue 01:10:58 PM 30.1064 -95.2269 89° East 261 300 4,600 -1,765 Descending Houston Center
Tue 01:12:00 PM 30.0772 -95.1786 125° Southeast 228 262 2,500 -2,032 Descending Houston Center

Login

Don't have an account? Register now (free) for customized features, flight alerts, and more!